Time;durP1;ratioP1;P1;durP2;ratioP2;P2;SDS_P1;SDS_P2;PMS_P1;PMS_P2;Temp;Humidity;BMP_temperature;BMP_pressure;BME280_temperature;BME280_humidity;BME280_pressure;Samples;Min_cycle;Max_cycle;Signal;HPM_P1;HPM_P2
2021/07/19 00:01:49;;;;;;;1.85;1.10;;;19.00;85.60;;;;;;5072116;28;20028;-73
2021/07/19 00:04:15;;;;;;;2.38;1.25;;;18.90;85.90;;;;;;5072884;28;20025;-73
2021/07/19 00:06:40;;;;;;;1.88;1.48;;;18.80;86.20;;;;;;5071297;28;20025;-72
2021/07/19 00:09:06;;;;;;;3.10;1.60;;;18.80;86.40;;;;;;5072348;28;20033;-72
2021/07/19 00:11:32;;;;;;;2.28;1.23;;;18.70;86.50;;;;;;5074371;28;20531;-73
2021/07/19 00:13:58;;;;;;;3.03;1.20;;;18.70;86.70;;;;;;5072516;28;20078;-73
2021/07/19 00:16:24;;;;;;;2.20;1.20;;;18.70;86.70;;;;;;5073931;28;20032;-73
2021/07/19 00:18:50;;;;;;;3.08;1.70;;;18.70;86.80;;;;;;5071964;28;20197;-73
2021/07/19 00:21:16;;;;;;;3.13;1.25;;;18.60;86.90;;;;;;5072744;28;20025;-73
2021/07/19 00:23:41;;;;;;;2.20;1.15;;;18.50;87.00;;;;;;5074908;28;20488;-72
2021/07/19 00:26:07;;;;;;;2.22;1.15;;;18.50;87.10;;;;;;5075294;28;20021;-72
2021/07/19 00:28:32;;;;;;;2.22;1.60;;;18.50;87.20;;;;;;5075381;28;21228;-72
2021/07/19 00:30:58;;;;;;;2.38;1.55;;;18.40;87.20;;;;;;5071106;28;20021;-73
2021/07/19 00:33:24;;;;;;;1.85;1.15;;;18.30;87.40;;;;;;5071523;28;20021;-73
2021/07/19 00:35:50;;;;;;;4.30;1.10;;;18.30;87.70;;;;;;5071610;28;20107;-73
2021/07/19 00:38:15;;;;;;;2.55;1.60;;;18.30;87.90;;;;;;5072496;28;20069;-72
2021/07/19 00:40:41;;;;;;;2.85;1.35;;;18.20;88.00;;;;;;5077254;28;20493;-72
2021/07/19 00:43:07;;;;;;;3.20;1.35;;;18.20;88.20;;;;;;5082974;28;20095;-73
2021/07/19 00:45:33;;;;;;;2.70;1.13;;;18.10;88.30;;;;;;5080949;28;20488;-73
2021/07/19 00:48:01;;;;;;;1.63;1.40;;;18.00;88.40;;;;;;5079057;28;20028;-72
2021/07/19 00:50:28;;;;;;;1.77;1.27;;;18.00;88.50;;;;;;5078134;28;20028;-73
2021/07/19 00:52:57;;;;;;;2.80;1.50;;;17.90;88.60;;;;;;5078198;28;20036;-73
2021/07/19 00:55:36;;;;;;;2.95;1.20;;;17.90;88.90;;;;;;5081957;28;20043;-73
2021/07/19 00:58:03;;;;;;;1.45;1.17;;;17.90;88.90;;;;;;5091162;28;20035;-73
2021/07/19 01:00:29;;;;;;;1.75;1.27;;;17.90;89.00;;;;;;5079468;28;20503;-73
2021/07/19 01:02:55;;;;;;;2.03;1.45;;;17.80;89.00;;;;;;5078351;28;20017;-73
2021/07/19 01:05:21;;;;;;;1.95;1.33;;;17.70;89.20;;;;;;5079083;28;20385;-73
2021/07/19 01:07:48;;;;;;;1.60;1.40;;;17.70;89.40;;;;;;5077843;28;20029;-73
2021/07/19 01:10:17;;;;;;;2.95;1.52;;;17.70;89.50;;;;;;5083805;28;20066;-73
2021/07/19 01:12:52;;;;;;;2.05;1.25;;;17.60;89.40;;;;;;5095703;28;20489;-73
2021/07/19 01:15:19;;;;;;;2.97;1.33;;;17.60;89.50;;;;;;5080096;28;20060;-73
2021/07/19 01:17:45;;;;;;;2.13;1.50;;;17.60;89.60;;;;;;5076991;28;20030;-73
2021/07/19 01:20:11;;;;;;;3.30;1.65;;;17.50;89.70;;;;;;5080872;28;20032;-73
2021/07/19 01:23:02;;;;;;;3.85;1.77;;;17.50;89.80;;;;;;5080175;28;20116;-73
2021/07/19 01:25:46;;;;;;;3.65;1.50;;;17.50;89.70;;;;;;5084006;28;20488;-72
2021/07/19 01:28:25;;;;;;;2.50;1.20;;;17.50;90.00;;;;;;5080459;28;20111;-73
2021/07/19 01:30:51;;;;;;;2.80;1.45;;;17.40;90.00;;;;;;5078660;28;20028;-73
2021/07/19 01:33:18;;;;;;;2.92;1.98;;;17.30;90.10;;;;;;5077701;28;20035;-73
2021/07/19 01:35:46;;;;;;;2.75;1.67;;;17.30;90.20;;;;;;5078073;28;20097;-73
2021/07/19 01:38:13;;;;;;;3.78;1.95;;;17.30;90.30;;;;;;5076349;28;20024;-73
2021/07/19 01:40:39;;;;;;;3.05;1.73;;;17.30;90.40;;;;;;5084911;28;20033;-73
2021/07/19 01:43:06;;;;;;;3.35;1.90;;;17.30;90.50;;;;;;5083107;28;20081;-73
2021/07/19 01:45:32;;;;;;;4.13;2.20;;;17.20;90.50;;;;;;5080634;28;20028;-73
2021/07/19 01:47:59;;;;;;;2.70;2.00;;;17.20;90.60;;;;;;5078334;28;20393;-73
2021/07/19 01:50:25;;;;;;;2.20;1.67;;;17.20;90.70;;;;;;5077712;28;20089;-73
2021/07/19 01:52:51;;;;;;;2.47;1.80;;;17.20;90.80;;;;;;5075572;28;20427;-72
2021/07/19 01:55:17;;;;;;;4.80;2.10;;;17.10;90.80;;;;;;5073076;28;20081;-72
2021/07/19 01:57:42;;;;;;;2.50;2.00;;;17.10;90.90;;;;;;5089735;28;20027;-72
2021/07/19 02:00:09;;;;;;;4.55;2.63;;;17.10;90.90;;;;;;5075033;28;20024;-73
2021/07/19 02:02:37;;;;;;;3.35;2.15;;;17.10;91.00;;;;;;5077059;28;20600;-73
2021/07/19 02:05:10;;;;;;;3.83;2.58;;;17.00;91.00;;;;;;5075712;28;20099;-72
2021/07/19 02:07:37;;;;;;;5.15;1.95;;;17.00;91.10;;;;;;5075388;28;20048;-73
2021/07/19 02:10:09;;;;;;;4.25;2.72;;;17.00;91.20;;;;;;5073208;28;20017;-72
2021/07/19 02:12:38;;;;;;;2.83;1.92;;;16.90;91.20;;;;;;5076163;28;20025;-72
2021/07/19 02:15:15;;;;;;;4.25;2.30;;;16.90;91.30;;;;;;5077636;28;20028;-72
2021/07/19 02:17:57;;;;;;;3.17;2.17;;;16.80;91.30;;;;;;5075599;28;20029;-72
2021/07/19 02:20:23;;;;;;;3.55;2.05;;;16.80;91.40;;;;;;5079702;28;20013;-73
2021/07/19 02:22:49;;;;;;;2.97;2.00;;;16.70;91.50;;;;;;5075084;28;20497;-72
2021/07/19 02:25:18;;;;;;;3.97;2.60;;;16.70;91.50;;;;;;5077437;28;20025;-72
2021/07/19 02:27:46;;;;;;;3.53;2.03;;;16.70;91.50;;;;;;5073506;28;20017;-73
2021/07/19 02:30:16;;;;;;;5.00;2.35;;;16.60;91.60;;;;;;5074437;28;20024;-73
2021/07/19 02:32:46;;;;;;;3.15;2.03;;;16.60;91.60;;;;;;5073843;28;20024;-73
2021/07/19 02:35:14;;;;;;;3.85;2.42;;;16.50;91.60;;;;;;5072761;28;20068;-73
2021/07/19 02:37:42;;;;;;;3.33;2.30;;;16.50;91.80;;;;;;5073037;28;20032;-73
2021/07/19 02:40:10;;;;;;;6.45;2.35;;;16.50;91.80;;;;;;5076783;28;20032;-73
2021/07/19 02:42:40;;;;;;;4.35;2.40;;;16.40;91.80;;;;;;5073886;28;20167;-73
2021/07/19 02:45:07;;;;;;;3.25;2.20;;;16.50;91.90;;;;;;5073887;28;20056;-73
2021/07/19 02:47:33;;;;;;;2.63;2.17;;;16.40;91.90;;;;;;5073393;28;20115;-73
2021/07/19 02:50:01;;;;;;;3.92;2.40;;;16.40;92.00;;;;;;5072123;28;20526;-72
2021/07/19 02:52:26;;;;;;;3.05;2.47;;;16.30;92.00;;;;;;5073307;28;20027;-73
2021/07/19 02:54:53;;;;;;;4.13;2.47;;;16.30;92.00;;;;;;5072147;28;20024;-73
2021/07/19 02:57:18;;;;;;;4.10;2.88;;;16.30;92.10;;;;;;5077926;28;20102;-73
2021/07/19 02:59:44;;;;;;;4.78;2.38;;;16.30;92.10;;;;;;5075299;28;20103;-73
2021/07/19 03:02:11;;;;;;;3.72;2.75;;;16.30;92.20;;;;;;5077243;28;20028;-72
2021/07/19 03:04:40;;;;;;;3.42;2.90;;;16.20;92.30;;;;;;5074076;28;20023;-73
2021/07/19 03:07:08;;;;;;;4.65;3.17;;;16.20;92.30;;;;;;5073889;28;20047;-72
2021/07/19 03:09:39;;;;;;;4.82;3.13;;;16.20;92.40;;;;;;5072856;28;20020;-72
2021/07/19 03:12:06;;;;;;;4.03;3.28;;;16.20;92.50;;;;;;5073191;28;20043;-72
2021/07/19 03:14:34;;;;;;;3.75;2.83;;;16.20;92.60;;;;;;5076422;28;20077;-72
2021/07/19 03:17:01;;;;;;;5.90;3.10;;;16.20;92.60;;;;;;5073217;28;20039;-72
2021/07/19 03:19:28;;;;;;;5.57;3.45;;;16.20;92.70;;;;;;5071618;28;20021;-72
2021/07/19 03:21:58;;;;;;;3.67;2.60;;;16.10;92.80;;;;;;5074307;28;20101;-72
2021/07/19 03:24:25;;;;;;;4.68;2.70;;;16.10;92.80;;;;;;5075495;28;20065;-72
2021/07/19 03:26:51;;;;;;;4.72;2.63;;;16.10;92.90;;;;;;5076743;28;20085;-72
2021/07/19 03:29:18;;;;;;;5.85;3.38;;;16.10;93.00;;;;;;5072871;28;20111;-72
2021/07/19 03:31:44;;;;;;;5.93;3.17;;;16.10;93.00;;;;;;5074629;28;20027;-72
2021/07/19 03:34:12;;;;;;;5.38;3.35;;;16.10;93.10;;;;;;5072958;28;20028;-73
2021/07/19 03:36:38;;;;;;;4.90;3.20;;;16.00;93.10;;;;;;5072840;28;20025;-73
2021/07/19 03:39:05;;;;;;;5.63;2.88;;;16.00;93.20;;;;;;5074873;28;20089;-72
2021/07/19 03:41:31;;;;;;;4.25;2.70;;;16.00;93.30;;;;;;5075046;28;20111;-73
2021/07/19 03:43:58;;;;;;;4.50;2.83;;;16.00;93.30;;;;;;5074787;28;20055;-72
2021/07/19 03:46:24;;;;;;;3.53;2.80;;;16.00;93.40;;;;;;5073807;28;20351;-73
2021/07/19 03:48:50;;;;;;;5.80;3.33;;;16.00;93.50;;;;;;5072876;28;20020;-73
2021/07/19 03:51:16;;;;;;;4.38;3.03;;;16.00;93.50;;;;;;5074611;28;20214;-72
2021/07/19 03:53:42;;;;;;;4.05;3.08;;;15.90;93.50;;;;;;5072980;28;20537;-73
2021/07/19 03:56:09;;;;;;;3.83;2.78;;;15.90;93.60;;;;;;5073421;28;20055;-73
2021/07/19 03:58:36;;;;;;;4.65;3.08;;;15.80;93.70;;;;;;5072891;28;20024;-72
2021/07/19 04:01:02;;;;;;;5.53;3.70;;;15.90;93.80;;;;;;5075924;28;20572;-72
2021/07/19 04:03:33;;;;;;;5.85;3.40;;;15.90;93.80;;;;;;5073619;28;20025;-72
2021/07/19 04:06:01;;;;;;;3.97;3.00;;;15.80;93.90;;;;;;5074079;28;20047;-72
2021/07/19 04:08:30;;;;;;;5.68;3.70;;;15.90;94.00;;;;;;5072697;28;20069;-72
2021/07/19 04:10:56;;;;;;;5.95;3.67;;;15.90;94.00;;;;;;5072502;28;20505;-72
2021/07/19 04:13:22;;;;;;;5.10;3.58;;;15.80;94.10;;;;;;5073107;28;20119;-72
2021/07/19 04:15:50;;;;;;;6.70;3.97;;;15.80;94.20;;;;;;5072373;28;20060;-72
2021/07/19 04:18:23;;;;;;;4.45;3.30;;;15.80;94.20;;;;;;5072759;28;20072;-72
2021/07/19 04:20:53;;;;;;;3.83;3.22;;;15.80;94.30;;;;;;5070593;28;20044;-72
2021/07/19 04:23:19;;;;;;;4.47;2.90;;;15.90;94.30;;;;;;5074120;28;20054;-72
2021/07/19 04:25:46;;;;;;;5.30;3.30;;;15.90;94.40;;;;;;5073893;28;20048;-72
2021/07/19 04:28:20;;;;;;;5.45;3.30;;;15.90;94.40;;;;;;5074585;28;20013;-72
2021/07/19 04:30:46;;;;;;;4.97;3.47;;;15.90;94.50;;;;;;5071811;28;20020;-72
2021/07/19 04:33:16;;;;;;;4.88;3.05;;;15.90;94.50;;;;;;5072982;28;20496;-72
2021/07/19 04:35:45;;;;;;;5.55;3.20;;;16.00;94.60;;;;;;5072053;28;20021;-72
2021/07/19 04:38:12;;;;;;;5.40;3.33;;;16.00;94.60;;;;;;5070463;28;20062;-72
2021/07/19 04:40:37;;;;;;;6.32;3.40;;;16.00;94.70;;;;;;5072578;28;20032;-72
2021/07/19 04:43:03;;;;;;;5.60;3.90;;;16.00;94.70;;;;;;5072400;28;20027;-72
2021/07/19 04:45:28;;;;;;;5.57;3.28;;;16.00;94.70;;;;;;5073906;28;20012;-72
2021/07/19 04:47:54;;;;;;;5.32;3.42;;;16.00;94.80;;;;;;5071516;28;20033;-72
2021/07/19 04:50:20;;;;;;;5.32;3.83;;;16.00;94.80;;;;;;5073093;28;20024;-72
2021/07/19 04:52:46;;;;;;;4.63;3.30;;;16.10;94.90;;;;;;5072301;28;20400;-72
2021/07/19 04:55:18;;;;;;;4.55;3.22;;;16.10;95.00;;;;;;5070512;28;20029;-72
2021/07/19 04:57:51;;;;;;;4.97;3.63;;;16.10;95.00;;;;;;5072690;28;20023;-72
2021/07/19 05:00:18;;;;;;;4.20;2.85;;;16.10;95.10;;;;;;5073570;28;20051;-72
2021/07/19 05:02:45;;;;;;;5.03;3.40;;;16.10;95.10;;;;;;5073598;28;20028;-72
2021/07/19 05:05:14;;;;;;;4.13;2.97;;;16.20;95.20;;;;;;5071568;28;20115;-72
2021/07/19 05:07:43;;;;;;;5.07;2.95;;;16.20;95.20;;;;;;5072695;28;20389;-72
2021/07/19 05:10:09;;;;;;;4.80;3.05;;;16.20;95.20;;;;;;5070576;28;20024;-72
2021/07/19 05:12:36;;;;;;;4.30;3.25;;;16.30;95.20;;;;;;5071468;28;20052;-72
2021/07/19 05:15:02;;;;;;;5.43;3.70;;;16.30;95.30;;;;;;5072219;28;20495;-72
2021/07/19 05:17:28;;;;;;;5.70;3.22;;;16.40;95.30;;;;;;5072077;28;20038;-72
2021/07/19 05:19:55;;;;;;;6.20;3.08;;;16.40;95.40;;;;;;5071782;28;20028;-72
2021/07/19 05:22:21;;;;;;;4.10;3.03;;;16.40;95.40;;;;;;5074121;28;20025;-72
2021/07/19 05:24:47;;;;;;;5.70;3.63;;;16.40;95.50;;;;;;5074655;28;20378;-72
2021/07/19 05:27:14;;;;;;;4.93;3.83;;;16.40;95.50;;;;;;5074300;28;20385;-72
2021/07/19 05:29:41;;;;;;;4.68;3.20;;;16.50;95.50;;;;;;5075889;28;20020;-73
2021/07/19 05:32:08;;;;;;;4.82;3.58;;;16.50;95.60;;;;;;5075420;28;20040;-72
2021/07/19 05:34:35;;;;;;;5.03;3.10;;;16.60;95.90;;;;;;5084049;28;20028;-72
2021/07/19 05:37:02;;;;;;;5.65;3.38;;;16.50;95.60;;;;;;5094256;28;20036;-72
2021/07/19 05:39:28;;;;;;;6.38;3.55;;;16.60;95.70;;;;;;5095481;28;20087;-72
2021/07/19 05:41:55;;;;;;;5.00;3.63;;;16.60;95.70;;;;;;5094540;28;20048;-72
2021/07/19 05:44:20;;;;;;;7.35;4.00;;;16.60;95.80;;;;;;5095627;28;20035;-72
2021/07/19 05:46:46;;;;;;;4.47;3.40;;;16.70;95.90;;;;;;5095637;28;20046;-72
2021/07/19 05:49:11;;;;;;;7.47;4.88;;;16.70;95.90;;;;;;5095673;28;20028;-72
2021/07/19 05:51:37;;;;;;;4.97;3.53;;;16.70;96.00;;;;;;5094044;28;20073;-72
2021/07/19 05:54:03;;;;;;;5.90;4.20;;;16.80;96.00;;;;;;5095353;28;20028;-72
2021/07/19 05:56:32;;;;;;;6.80;4.35;;;16.80;96.00;;;;;;5095494;28;20091;-72
2021/07/19 05:58:58;;;;;;;5.85;4.35;;;16.90;96.10;;;;;;5094061;28;20027;-72
2021/07/19 06:01:24;;;;;;;8.73;5.75;;;16.90;96.10;;;;;;5095314;28;20028;-72
2021/07/19 06:03:49;;;;;;;6.80;5.25;;;17.00;96.20;;;;;;5082705;28;20029;-72
2021/07/19 06:06:15;;;;;;;6.78;4.47;;;17.00;96.20;;;;;;5074704;28;20549;-72
2021/07/19 06:08:40;;;;;;;6.82;4.65;;;17.10;96.30;;;;;;5088028;28;20031;-72
2021/07/19 06:11:06;;;;;;;8.00;4.68;;;17.10;96.30;;;;;;5093394;28;20525;-72
2021/07/19 06:13:31;;;;;;;6.72;4.38;;;17.10;96.30;;;;;;5095040;28;20028;-72
2021/07/19 06:15:57;;;;;;;7.10;4.25;;;17.20;96.30;;;;;;5093801;28;20407;-72
2021/07/19 06:18:22;;;;;;;6.25;3.88;;;17.20;96.30;;;;;;5093559;28;20502;-72
2021/07/19 06:20:48;;;;;;;5.47;4.10;;;17.30;96.40;;;;;;5094924;28;20035;-72
2021/07/19 06:23:13;;;;;;;7.63;4.20;;;17.40;96.40;;;;;;5093394;28;20024;-72
2021/07/19 06:25:42;;;;;;;6.75;3.42;;;17.50;96.30;;;;;;5093926;28;20030;-71
2021/07/19 06:28:09;;;;;;;7.75;4.10;;;17.60;96.30;;;;;;5094737;28;20024;-72
2021/07/19 06:30:35;;;;;;;7.65;4.32;;;17.70;96.20;;;;;;5094685;28;20020;-72
2021/07/19 06:33:01;;;;;;;6.57;4.20;;;17.70;96.20;;;;;;5080895;28;20043;-72
2021/07/19 06:35:26;;;;;;;7.88;4.78;;;17.80;96.10;;;;;;5093067;28;20027;-71
2021/07/19 06:37:52;;;;;;;4.95;3.75;;;17.90;96.10;;;;;;5093065;28;20031;-72
2021/07/19 06:40:18;;;;;;;3.97;3.05;;;17.90;96.00;;;;;;5089994;28;20059;-71
2021/07/19 06:42:44;;;;;;;5.03;3.08;;;18.00;95.90;;;;;;5072727;28;20367;-72
2021/07/19 06:45:12;;;;;;;5.47;3.33;;;18.00;95.90;;;;;;5074097;28;20504;-72
2021/07/19 06:47:39;;;;;;;5.47;3.70;;;18.10;95.90;;;;;;5093967;28;20024;-72
2021/07/19 06:50:08;;;;;;;11.20;5.10;;;18.10;95.80;;;;;;5091464;28;20267;-73
2021/07/19 06:52:35;;;;;;;5.53;4.38;;;18.20;95.90;;;;;;5093924;28;20454;-73
2021/07/19 06:55:00;;;;;;;5.65;4.25;;;18.20;95.80;;;;;;5094037;28;20497;-72
2021/07/19 06:57:26;;;;;;;5.22;4.53;;;18.30;95.70;;;;;;5094110;28;20036;-72
2021/07/19 06:59:52;;;;;;;7.43;3.72;;;18.30;95.50;;;;;;5092627;28;20017;-72
2021/07/19 07:02:17;;;;;;;6.25;3.75;;;18.40;95.40;;;;;;5092692;28;20169;-72
2021/07/19 07:04:43;;;;;;;8.27;4.65;;;18.50;95.20;;;;;;5094125;28;20477;-72
2021/07/19 07:07:09;;;;;;;5.93;4.70;;;18.60;95.00;;;;;;5093915;28;20032;-72
2021/07/19 07:09:35;;;;;;;7.10;5.53;;;18.70;94.70;;;;;;5093769;28;20020;-72
2021/07/19 07:12:01;;;;;;;9.90;5.80;;;18.70;94.30;;;;;;5092380;28;20412;-72
2021/07/19 07:14:26;;;;;;;7.50;5.60;;;18.90;94.10;;;;;;5092480;28;20024;-73
2021/07/19 07:16:52;;;;;;;8.00;5.93;;;19.00;93.90;;;;;;5093342;28;20023;-73
2021/07/19 07:19:18;;;;;;;7.85;5.93;;;19.10;93.60;;;;;;5093744;28;20024;-73
2021/07/19 07:21:43;;;;;;;9.25;6.63;;;19.20;93.40;;;;;;5093542;28;20028;-73
2021/07/19 07:24:09;;;;;;;12.65;8.60;;;19.40;93.00;;;;;;5093487;28;20481;-73
2021/07/19 07:26:35;;;;;;;9.13;7.07;;;19.40;92.30;;;;;;5093557;28;20489;-73
2021/07/19 07:29:00;;;;;;;9.77;7.65;;;19.50;92.10;;;;;;5093507;28;20132;-73
2021/07/19 07:31:29;;;;;;;8.57;6.63;;;19.60;91.90;;;;;;5093246;28;20486;-73
2021/07/19 07:33:57;;;;;;;8.57;6.72;;;19.80;91.70;;;;;;5092165;28;20093;-73
2021/07/19 07:36:26;;;;;;;8.65;7.00;;;19.90;91.50;;;;;;5092156;28;20111;-73
2021/07/19 07:38:52;;;;;;;;;;;20.00;91.30;;;;;;5093494;28;20413;-73
2021/07/19 07:41:23;;;;;;;8.13;6.07;;;20.10;91.30;;;;;;5093123;28;19904;-73
2021/07/19 07:43:48;;;;;;;9.35;7.28;;;20.20;91.00;;;;;;5092650;28;20398;-73
2021/07/19 07:46:15;;;;;;;8.63;6.70;;;20.40;90.60;;;;;;5093185;28;20081;-73
2021/07/19 07:48:41;;;;;;;9.10;6.72;;;20.50;90.30;;;;;;5093301;28;20031;-73
2021/07/19 07:51:08;;;;;;;12.10;8.13;;;20.60;89.90;;;;;;5090802;28;20028;-73
2021/07/19 07:53:34;;;;;;;7.35;6.60;;;20.70;89.30;;;;;;5093089;28;20025;-73
2021/07/19 07:56:00;;;;;;;9.50;7.47;;;20.80;88.50;;;;;;5092806;28;20028;-73
2021/07/19 07:58:26;;;;;;;9.05;6.57;;;20.90;87.90;;;;;;5091457;28;20155;-72
2021/07/19 08:00:52;;;;;;;9.27;6.70;;;20.90;87.90;;;;;;5092823;28;20527;-72
2021/07/19 08:03:18;;;;;;;9.00;6.28;;;21.00;88.00;;;;;;5091566;28;20111;-73
2021/07/19 08:05:44;;;;;;;9.18;5.72;;;21.10;88.10;;;;;;5092984;28;20020;-72
2021/07/19 08:08:09;;;;;;;7.05;5.55;;;21.10;88.20;;;;;;5091321;28;20032;-72
2021/07/19 08:10:35;;;;;;;7.63;5.53;;;21.20;88.30;;;;;;5092689;28;20032;-71
2021/07/19 08:13:01;;;;;;;6.88;5.35;;;21.30;88.10;;;;;;5091352;28;20076;-71
2021/07/19 08:15:26;;;;;;;7.85;5.32;;;21.50;87.70;;;;;;5091418;28;20107;-72
2021/07/19 08:17:52;;;;;;;6.38;4.97;;;21.50;87.60;;;;;;5092401;28;20047;-72
2021/07/19 08:20:18;;;;;;;8.40;6.40;;;21.60;87.10;;;;;;5091450;28;20020;-72
2021/07/19 08:22:47;;;;;;;6.72;5.45;;;21.70;86.60;;;;;;5092645;28;20073;-72
2021/07/19 08:25:13;;;;;;;7.85;5.22;;;21.90;86.00;;;;;;5092451;28;20095;-72
2021/07/19 08:27:39;;;;;;;7.22;5.68;;;22.00;85.50;;;;;;5092466;28;20036;-72
2021/07/19 08:30:06;;;;;;;5.88;4.75;;;22.00;84.70;;;;;;5092334;28;20035;-72
2021/07/19 08:32:32;;;;;;;6.07;4.70;;;22.10;84.60;;;;;;5091057;28;20370;-73
2021/07/19 08:34:57;;;;;;;7.43;5.30;;;22.10;84.50;;;;;;5092392;28;20035;-72
2021/07/19 08:37:23;;;;;;;6.63;4.88;;;22.10;84.20;;;;;;5092386;28;20039;-72
2021/07/19 08:39:48;;;;;;;8.40;5.35;;;22.10;84.30;;;;;;5088985;28;20049;-71
2021/07/19 08:42:14;;;;;;;6.80;4.63;;;22.10;84.30;;;;;;5072670;28;20099;-73
2021/07/19 08:44:41;;;;;;;5.60;4.50;;;22.30;84.30;;;;;;5091204;28;20032;-72
2021/07/19 08:47:11;;;;;;;5.47;4.57;;;22.50;83.90;;;;;;5091051;28;20062;-73
2021/07/19 08:49:38;;;;;;;7.15;5.10;;;22.60;83.00;;;;;;5091359;28;20028;-73
2021/07/19 08:52:05;;;;;;;7.10;4.88;;;22.60;82.60;;;;;;5092107;28;20111;-73
2021/07/19 08:54:38;;;;;;;7.57;5.25;;;22.70;82.30;;;;;;5090831;28;20031;-73
2021/07/19 08:57:05;;;;;;;6.93;4.75;;;22.80;82.10;;;;;;5090690;28;20024;-71
2021/07/19 08:59:31;;;;;;;7.30;4.45;;;22.70;82.10;;;;;;5092333;28;20024;-71
2021/07/19 09:02:00;;;;;;;6.65;4.65;;;22.60;82.00;;;;;;5092921;28;20035;-71
2021/07/19 09:04:26;;;;;;;8.20;5.23;;;22.60;82.10;;;;;;5094938;28;20020;-71
2021/07/19 09:06:51;;;;;;;7.30;4.88;;;22.60;82.00;;;;;;5094848;28;20436;-73
2021/07/19 09:09:31;;;;;;;7.10;4.53;;;22.70;81.50;;;;;;5094912;28;20066;-73
2021/07/19 09:11:58;;;;;;;7.35;4.55;;;22.90;81.00;;;;;;5078751;28;20513;-74
2021/07/19 09:14:24;;;;;;;5.35;4.10;;;23.00;80.00;;;;;;5074496;28;20078;-73
2021/07/19 09:16:51;;;;;;;7.20;4.88;;;23.20;79.70;;;;;;5078003;28;20028;-73
2021/07/19 09:19:20;;;;;;;7.25;4.30;;;23.20;78.80;;;;;;5075021;28;20032;-73
2021/07/19 09:21:54;;;;;;;6.38;4.40;;;23.20;79.00;;;;;;5087520;28;20040;-73
2021/07/19 09:24:22;;;;;;;5.90;4.50;;;23.30;78.60;;;;;;5094913;28;20393;-72
2021/07/19 09:26:49;;;;;;;8.00;4.88;;;23.40;78.50;;;;;;5074565;28;20031;-73
2021/07/19 09:29:18;;;;;;;7.68;5.53;;;23.40;77.90;;;;;;5073639;28;20155;-72
2021/07/19 09:31:49;;;;;;;5.60;4.05;;;23.60;77.70;;;;;;5075105;28;20465;-73
2021/07/19 09:34:17;;;;;;;5.80;4.22;;;23.70;77.70;;;;;;5091745;28;20020;-73
2021/07/19 09:36:56;;;;;;;4.95;3.97;;;23.80;77.50;;;;;;5095119;28;20385;-73
2021/07/19 09:39:22;;;;;;;7.40;5.22;;;24.00;76.80;;;;;;5093488;28;20098;-73
2021/07/19 09:41:48;;;;;;;8.35;5.07;;;24.10;76.00;;;;;;5094925;28;20024;-73
2021/07/19 09:44:13;;;;;;;5.90;3.90;;;24.10;75.30;;;;;;5095203;28;20085;-73
2021/07/19 09:46:40;;;;;;;7.45;5.10;;;24.20;75.60;;;;;;5093390;28;20019;-73
2021/07/19 09:49:06;;;;;;;5.95;4.22;;;24.10;75.00;;;;;;5094921;28;20024;-73
2021/07/19 09:51:34;;;;;;;7.22;4.80;;;24.20;75.10;;;;;;5092781;28;20027;-73
2021/07/19 09:54:13;;;;;;;8.38;4.93;;;24.00;75.10;;;;;;5082644;28;20028;-73
2021/07/19 09:56:40;;;;;;;5.72;4.72;;;24.10;74.80;;;;;;5074087;28;20070;-73
2021/07/19 09:59:13;;;;;;;6.22;4.45;;;24.00;75.00;;;;;;5073705;28;20035;-73
2021/07/19 10:01:43;;;;;;;7.85;4.68;;;24.30;75.40;;;;;;5074284;28;20024;-72
2021/07/19 10:04:21;;;;;;;6.85;5.03;;;24.30;74.50;;;;;;5074358;28;20012;-73
2021/07/19 10:06:51;;;;;;;6.10;4.90;;;24.60;74.10;;;;;;5074409;28;20012;-73
2021/07/19 10:09:19;;;;;;;6.82;4.90;;;24.80;73.50;;;;;;5073388;28;20013;-73
2021/07/19 10:11:53;;;;;;;5.72;4.38;;;24.90;72.90;;;;;;5084987;28;20024;-73
2021/07/19 10:14:35;;;;;;;6.63;4.45;;;25.10;72.50;;;;;;5084205;28;20028;-72
2021/07/19 10:17:03;;;;;;;6.18;4.55;;;25.10;71.90;;;;;;5085705;28;20093;-72
2021/07/19 10:19:29;;;;;;;6.47;4.88;;;25.10;72.10;;;;;;5093234;28;20485;-73
2021/07/19 10:21:55;;;;;;;6.57;4.97;;;25.20;71.90;;;;;;5092764;28;20054;-74
2021/07/19 10:24:21;;;;;;;7.05;5.40;;;25.30;71.70;;;;;;5094935;28;20031;-74
2021/07/19 10:26:49;;;;;;;6.28;4.63;;;25.40;71.20;;;;;;5093331;28;20217;-74
2021/07/19 10:29:16;;;;;;;6.40;5.03;;;25.40;70.90;;;;;;5094691;28;20024;-73
2021/07/19 10:31:42;;;;;;;6.70;4.93;;;25.60;70.20;;;;;;5093220;28;20503;-74
2021/07/19 10:34:08;;;;;;;6.63;5.30;;;25.70;69.90;;;;;;5088557;28;20385;-73
2021/07/19 10:36:44;;;;;;;6.47;4.65;;;25.90;69.80;;;;;;5086160;28;20381;-73
2021/07/19 10:39:23;;;;;;;8.13;5.22;;;26.00;69.50;;;;;;5091760;28;20048;-73
2021/07/19 10:42:01;;;;;;;7.18;6.10;;;26.10;69.20;;;;;;5078663;28;20035;-72
2021/07/19 10:44:33;;;;;;;5.85;4.68;;;26.00;68.40;;;;;;5094375;28;20028;-73
2021/07/19 10:47:21;;;;;;;7.28;5.22;;;26.00;68.80;;;;;;5092836;28;20024;-73
2021/07/19 10:49:57;;;;;;;7.38;4.70;;;25.90;68.50;;;;;;5093090;28;20427;-72
2021/07/19 10:52:35;;;;;;;8.38;5.20;;;25.90;68.80;;;;;;5094134;28;20024;-73
2021/07/19 10:55:02;;;;;;;6.65;5.28;;;26.00;68.50;;;;;;5092959;28;20020;-73
2021/07/19 10:57:41;;;;;;;6.10;4.60;;;26.20;68.90;;;;;;5092785;28;20445;-73
2021/07/19 11:00:21;;;;;;;7.05;5.15;;;26.40;67.70;;;;;;5091732;28;20024;-73
2021/07/19 11:02:47;;;;;;;6.45;5.07;;;26.50;67.70;;;;;;5074548;28;20123;-73
2021/07/19 11:05:15;;;;;;;6.60;5.18;;;26.70;67.50;;;;;;5072401;28;20074;-73
2021/07/19 11:07:42;;;;;;;7.90;5.18;;;26.90;67.00;;;;;;5073757;28;20024;-73
2021/07/19 11:10:16;;;;;;;6.47;4.55;;;27.20;66.70;;;;;;5081231;28;20020;-73
2021/07/19 11:12:53;;;;;;;7.50;5.80;;;27.30;66.00;;;;;;5085761;28;20031;-73
2021/07/19 11:15:21;;;;;;;7.15;5.80;;;27.40;64.70;;;;;;5083886;28;20013;-73
2021/07/19 11:17:50;;;;;;;7.10;4.80;;;27.50;64.80;;;;;;5086882;28;20054;-73
2021/07/19 11:20:16;;;;;;;8.80;6.38;;;27.60;64.60;;;;;;5090813;28;20524;-73
2021/07/19 11:22:44;;;;;;;7.43;6.20;;;27.50;64.00;;;;;;5084910;28;20081;-73
2021/07/19 11:25:15;;;;;;;5.80;5.20;;;27.50;63.80;;;;;;5085803;28;20493;-73
2021/07/19 11:27:43;;;;;;;6.13;5.25;;;27.50;63.30;;;;;;5087072;28;20091;-73
2021/07/19 11:30:23;;;;;;;9.00;6.70;;;27.50;63.50;;;;;;5078021;28;20036;-73
2021/07/19 11:32:49;;;;;;;8.18;5.90;;;27.60;63.00;;;;;;5080317;28;20053;-73
2021/07/19 11:35:22;;;;;;;7.00;5.68;;;27.70;62.90;;;;;;5091637;28;20381;-73
2021/07/19 11:37:50;;;;;;;6.32;5.00;;;27.90;62.80;;;;;;5088472;28;20053;-73
2021/07/19 11:40:36;;;;;;;8.52;5.60;;;28.00;62.30;;;;;;5079402;28;20512;-73
2021/07/19 11:43:15;;;;;;;6.78;5.57;;;28.10;61.40;;;;;;5092462;28;20103;-73
2021/07/19 11:45:48;;;;;;;7.18;5.85;;;28.20;61.20;;;;;;5091385;28;20481;-73
2021/07/19 11:48:14;;;;;;;6.03;5.32;;;28.30;61.20;;;;;;5091392;28;20036;-73
2021/07/19 11:50:40;;;;;;;7.07;6.07;;;28.50;61.20;;;;;;5083205;28;20021;-73
2021/07/19 11:53:06;;;;;;;7.68;6.20;;;28.60;60.60;;;;;;5072305;28;20039;-74
2021/07/19 11:55:32;;;;;;;7.90;6.32;;;28.50;60.20;;;;;;5073082;28;20024;-74
2021/07/19 11:58:02;;;;;;;6.10;5.47;;;28.50;59.80;;;;;;5073923;28;20127;-75
2021/07/19 12:00:29;;;;;;;7.53;5.65;;;28.60;60.00;;;;;;5078452;28;20441;-76
2021/07/19 12:03:03;;;;;;;6.43;5.72;;;28.80;59.70;;;;;;5092662;28;20385;-76
2021/07/19 12:05:29;;;;;;;7.22;5.35;;;29.00;58.90;;;;;;5091767;28;20016;-77
2021/07/19 12:08:02;;;;;;;8.77;5.82;;;29.10;59.00;;;;;;5091318;28;20036;-76
2021/07/19 12:10:29;;;;;;;5.75;5.05;;;29.20;58.70;;;;;;5092292;28;20488;-77
2021/07/19 12:12:55;;;;;;;6.90;5.53;;;29.20;58.60;;;;;;5075764;28;20032;-76
2021/07/19 12:15:21;;;;;;;7.43;5.18;;;29.20;58.30;;;;;;5085575;28;20492;-75
2021/07/19 12:17:54;;;;;;;6.55;5.53;;;29.20;58.30;;;;;;5090373;28;20027;-76
2021/07/19 12:20:25;;;;;;;5.68;5.07;;;29.20;58.20;;;;;;5080775;28;20013;-75
2021/07/19 12:23:01;;;;;;;8.50;5.65;;;29.30;58.30;;;;;;5071472;28;20076;-75
2021/07/19 12:25:26;;;;;;;6.55;5.72;;;29.40;58.10;;;;;;5070759;28;20023;-75
2021/07/19 12:28:00;;;;;;;6.93;5.82;;;29.40;58.10;;;;;;5072122;28;20028;-75
2021/07/19 12:30:27;;;;;;;7.32;5.25;;;29.60;58.00;;;;;;5078671;28;20393;-77
2021/07/19 12:32:53;;;;;;;7.07;5.80;;;29.80;57.90;;;;;;5091144;28;20020;-76
2021/07/19 12:35:23;;;;;;;7.38;5.15;;;30.00;57.50;;;;;;5092126;28;20027;-78
2021/07/19 12:37:56;;;;;;;7.35;5.88;;;30.10;57.30;;;;;;5091898;28;20026;-77
2021/07/19 12:40:24;;;;;;;7.40;5.95;;;30.20;57.00;;;;;;5092082;28;20040;-77
2021/07/19 12:42:51;;;;;;;8.68;6.45;;;30.20;56.80;;;;;;5091150;28;20392;-77
2021/07/19 12:45:17;;;;;;;7.07;6.07;;;30.00;56.40;;;;;;5092432;28;20022;-78
2021/07/19 12:47:45;;;;;;;6.28;5.53;;;29.80;56.80;;;;;;5091058;28;20118;-78
2021/07/19 12:50:11;;;;;;;6.22;5.63;;;29.80;56.80;;;;;;5086473;28;20031;-78
2021/07/19 12:52:37;;;;;;;8.15;5.50;;;29.90;57.10;;;;;;5086850;28;20043;-78